sensor_id;sensor_type;location;lat;lon;timestamp;pressure;altitude;pressure_sealevel;temperature;humidity
59009;BME280;44794;42.652;23.318;2023-03-18T00:02:04;94859.88;;;-0.55;100.00
59009;BME280;44794;42.652;23.318;2023-03-18T00:04:29;94859.06;;;-0.55;100.00
59009;BME280;44794;42.652;23.318;2023-03-18T00:06:55;94854.78;;;-0.55;100.00
59009;BME280;44794;42.652;23.318;2023-03-18T00:09:21;94859.94;;;-0.56;100.00
59009;BME280;44794;42.652;23.318;2023-03-18T00:11:47;94842.91;;;-0.56;100.00
59009;BME280;44794;42.652;23.318;2023-03-18T00:14:12;94841.34;;;-0.60;100.00
59009;BME280;44794;42.652;23.318;2023-03-18T00:16:38;94848.19;;;-0.62;100.00
59009;BME280;44794;42.652;23.318;2023-03-18T00:19:04;94839.75;;;-0.64;100.00
59009;BME280;44794;42.652;23.318;2023-03-18T00:21:31;94843.09;;;-0.62;100.00
59009;BME280;44794;42.652;23.318;2023-03-18T00:23:56;94837.34;;;-0.70;100.00
59009;BME280;44794;42.652;23.318;2023-03-18T00:26:24;94841.69;;;-0.73;100.00
59009;BME280;44794;42.652;23.318;2023-03-18T00:28:50;94830.72;;;-0.75;100.00
59009;BME280;44794;42.652;23.318;2023-03-18T00:31:16;94832.53;;;-0.78;100.00
59009;BME280;44794;42.652;23.318;2023-03-18T00:33:42;94839.50;;;-0.85;100.00
59009;BME280;44794;42.652;23.318;2023-03-18T00:36:10;94825.94;;;-0.85;100.00
59009;BME280;44794;42.652;23.318;2023-03-18T00:38:39;94834.50;;;-0.88;100.00
59009;BME280;44794;42.652;23.318;2023-03-18T00:41:06;94820.09;;;-0.90;100.00
59009;BME280;44794;42.652;23.318;2023-03-18T00:43:47;94820.09;;;-0.90;100.00
59009;BME280;44794;42.652;23.318;2023-03-18T00:46:24;94810.81;;;-0.91;100.00
59009;BME280;44794;42.652;23.318;2023-03-18T00:48:53;94806.59;;;-0.92;100.00
59009;BME280;44794;42.652;23.318;2023-03-18T00:51:20;94803.22;;;-0.94;100.00
59009;BME280;44794;42.652;23.318;2023-03-18T00:53:50;94804.09;;;-0.95;100.00
59009;BME280;44794;42.652;23.318;2023-03-18T00:56:17;94802.41;;;-0.95;100.00
59009;BME280;44794;42.652;23.318;2023-03-18T00:58:43;94798.19;;;-0.97;100.00
59009;BME280;44794;42.652;23.318;2023-03-18T01:01:10;94796.56;;;-0.98;100.00
59009;BME280;44794;42.652;23.318;2023-03-18T01:03:36;94788.00;;;-0.97;100.00
59009;BME280;44794;42.652;23.318;2023-03-18T01:06:02;94790.59;;;-0.99;100.00
59009;BME280;44794;42.652;23.318;2023-03-18T01:08:29;94791.47;;;-1.00;100.00
59009;BME280;44794;42.652;23.318;2023-03-18T01:10:55;94788.97;;;-1.01;100.00
59009;BME280;44794;42.652;23.318;2023-03-18T01:13:21;94788.22;;;-1.05;100.00
59009;BME280;44794;42.652;23.318;2023-03-18T01:15:49;94781.34;;;-1.01;100.00
59009;BME280;44794;42.652;23.318;2023-03-18T01:18:15;94775.44;;;-1.02;100.00
59009;BME280;44794;42.652;23.318;2023-03-18T01:20:41;94771.97;;;-1.01;100.00
59009;BME280;44794;42.652;23.318;2023-03-18T01:23:08;94772.88;;;-1.03;100.00
59009;BME280;44794;42.652;23.318;2023-03-18T01:25:34;94778.09;;;-1.06;100.00
59009;BME280;44794;42.652;23.318;2023-03-18T01:27:59;94762.69;;;-1.02;100.00
59009;BME280;44794;42.652;23.318;2023-03-18T01:30:25;94766.09;;;-1.03;100.00
59009;BME280;44794;42.652;23.318;2023-03-18T01:32:52;94768.59;;;-1.01;100.00
59009;BME280;44794;42.652;23.318;2023-03-18T01:35:18;94767.78;;;-1.03;100.00
59009;BME280;44794;42.652;23.318;2023-03-18T01:37:44;94762.81;;;-1.08;100.00
59009;BME280;44794;42.652;23.318;2023-03-18T01:40:11;94762.88;;;-1.09;100.00
59009;BME280;44794;42.652;23.318;2023-03-18T01:42:38;94753.69;;;-1.15;100.00
59009;BME280;44794;42.652;23.318;2023-03-18T01:45:14;94754.44;;;-1.11;100.00
59009;BME280;44794;42.652;23.318;2023-03-18T01:47:42;94757.03;;;-1.13;100.00
59009;BME280;44794;42.652;23.318;2023-03-18T01:50:12;94752.84;;;-1.15;100.00
59009;BME280;44794;42.652;23.318;2023-03-18T01:52:39;94757.94;;;-1.15;100.00
59009;BME280;44794;42.652;23.318;2023-03-18T01:55:11;94753.66;;;-1.13;100.00
59009;BME280;44794;42.652;23.318;2023-03-18T01:57:38;94752.69;;;-1.09;100.00
59009;BME280;44794;42.652;23.318;2023-03-18T02:00:06;94748.44;;;-1.09;100.00
59009;BME280;44794;42.652;23.318;2023-03-18T02:02:35;94746.78;;;-1.11;100.00
59009;BME280;44794;42.652;23.318;2023-03-18T02:05:04;94740.81;;;-1.10;100.00
59009;BME280;44794;42.652;23.318;2023-03-18T02:07:33;94738.19;;;-1.07;100.00
59009;BME280;44794;42.652;23.318;2023-03-18T02:10:05;94730.50;;;-1.06;100.00
59009;BME280;44794;42.652;23.318;2023-03-18T02:12:37;94733.97;;;-1.08;100.00
59009;BME280;44794;42.652;23.318;2023-03-18T02:15:06;94729.88;;;-1.14;100.00
59009;BME280;44794;42.652;23.318;2023-03-18T02:17:38;94739.25;;;-1.14;100.00
59009;BME280;44794;42.652;23.318;2023-03-18T02:22:49;94729.22;;;-1.20;100.00
59009;BME280;44794;42.652;23.318;2023-03-18T02:25:37;94733.56;;;-1.24;100.00
59009;BME280;44794;42.652;23.318;2023-03-18T02:28:09;94740.47;;;-1.27;100.00
59009;BME280;44794;42.652;23.318;2023-03-18T02:30:43;94743.19;;;-1.33;100.00
59009;BME280;44794;42.652;23.318;2023-03-18T02:33:13;94741.50;;;-1.34;100.00
59009;BME280;44794;42.652;23.318;2023-03-18T02:35:41;94733.84;;;-1.34;100.00
59009;BME280;44794;42.652;23.318;2023-03-18T02:38:08;94727.22;;;-1.40;100.00
59009;BME280;44794;42.652;23.318;2023-03-18T02:40:36;94733.22;;;-1.42;100.00
59009;BME280;44794;42.652;23.318;2023-03-18T02:43:36;94745.25;;;-1.47;100.00
59009;BME280;44794;42.652;23.318;2023-03-18T02:46:16;94735.94;;;-1.50;100.00
59009;BME280;44794;42.652;23.318;2023-03-18T02:48:45;94749.66;;;-1.53;100.00
59009;BME280;44794;42.652;23.318;2023-03-18T02:51:13;94738.66;;;-1.54;100.00
59009;BME280;44794;42.652;23.318;2023-03-18T02:53:39;94739.59;;;-1.58;100.00
59009;BME280;44794;42.652;23.318;2023-03-18T02:56:06;94740.44;;;-1.59;100.00
59009;BME280;44794;42.652;23.318;2023-03-18T02:58:32;94739.59;;;-1.58;100.00
59009;BME280;44794;42.652;23.318;2023-03-18T03:00:58;94734.38;;;-1.53;100.00
59009;BME280;44794;42.652;23.318;2023-03-18T03:03:24;94727.56;;;-1.53;100.00
59009;BME280;44794;42.652;23.318;2023-03-18T03:05:50;94719.06;;;-1.52;100.00
59009;BME280;44794;42.652;23.318;2023-03-18T03:08:17;94720.72;;;-1.51;100.00
59009;BME280;44794;42.652;23.318;2023-03-18T03:10:42;94727.56;;;-1.53;100.00
59009;BME280;44794;42.652;23.318;2023-03-18T03:13:08;94731.78;;;-1.52;100.00
59009;BME280;44794;42.652;23.318;2023-03-18T03:15:37;94728.47;;;-1.54;100.00
59009;BME280;44794;42.652;23.318;2023-03-18T03:18:04;94729.34;;;-1.55;100.00
59009;BME280;44794;42.652;23.318;2023-03-18T03:20:31;94725.97;;;-1.57;100.00
59009;BME280;44794;42.652;23.318;2023-03-18T03:23:02;94726.84;;;-1.58;100.00
59009;BME280;44794;42.652;23.318;2023-03-18T03:25:28;94732.91;;;-1.62;100.00
59009;BME280;44794;42.652;23.318;2023-03-18T03:27:54;94740.56;;;-1.63;100.00
59009;BME280;44794;42.652;23.318;2023-03-18T03:30:20;94731.19;;;-1.61;100.00
59009;BME280;44794;42.652;23.318;2023-03-18T03:32:46;94732.81;;;-1.59;100.00
59009;BME280;44794;42.652;23.318;2023-03-18T03:35:16;94739.69;;;-1.61;100.00
59009;BME280;44794;42.652;23.318;2023-03-18T03:37:43;94738.88;;;-1.63;100.00
59009;BME280;44794;42.652;23.318;2023-03-18T03:40:10;94740.63;;;-1.65;100.00
59009;BME280;44794;42.652;23.318;2023-03-18T03:42:36;94742.41;;;-1.68;100.00
59009;BME280;44794;42.652;23.318;2023-03-18T03:45:03;94738.19;;;-1.69;100.00
59009;BME280;44794;42.652;23.318;2023-03-18T03:47:30;94741.53;;;-1.67;100.00
59009;BME280;44794;42.652;23.318;2023-03-18T03:49:55;94747.50;;;-1.68;100.00
59009;BME280;44794;42.652;23.318;2023-03-18T03:52:21;94739.91;;;-1.70;100.00
59009;BME280;44794;42.652;23.318;2023-03-18T03:54:47;94745.91;;;-1.72;100.00
59009;BME280;44794;42.652;23.318;2023-03-18T03:57:12;94741.97;;;-1.84;100.00
59009;BME280;44794;42.652;23.318;2023-03-18T03:59:38;94741.09;;;-1.83;100.00
59009;BME280;44794;42.652;23.318;2023-03-18T04:02:03;94739.59;;;-1.91;100.00
59009;BME280;44794;42.652;23.318;2023-03-18T04:04:29;94733.44;;;-1.83;100.00
59009;BME280;44794;42.652;23.318;2023-03-18T04:06:54;94735.84;;;-1.77;100.00
59009;BME280;44794;42.652;23.318;2023-03-18T04:09:20;94739.94;;;-1.71;100.00
59009;BME280;44794;42.652;23.318;2023-03-18T04:11:46;94733.13;;;-1.71;100.00
59009;BME280;44794;42.652;23.318;2023-03-18T04:14:11;94740.44;;;-1.59;100.00
59009;BME280;44794;42.652;23.318;2023-03-18T04:16:37;94746.31;;;-1.55;100.00
59009;BME280;44794;42.652;23.318;2023-03-18T04:19:03;94748.97;;;-1.60;100.00
59009;BME280;44794;42.652;23.318;2023-03-18T04:21:30;94760.91;;;-1.62;100.00
59009;BME280;44794;42.652;23.318;2023-03-18T04:23:56;94770.25;;;-1.62;100.00
59009;BME280;44794;42.652;23.318;2023-03-18T04:26:21;94771.16;;;-1.65;100.00
59009;BME280;44794;42.652;23.318;2023-03-18T04:28:47;94775.44;;;-1.67;100.00
59009;BME280;44794;42.652;23.318;2023-03-18T04:31:12;94783.00;;;-1.64;100.00
59009;BME280;44794;42.652;23.318;2023-03-18T04:33:39;94788.16;;;-1.67;100.00
59009;BME280;44794;42.652;23.318;2023-03-18T04:36:05;94785.66;;;-1.68;100.00
59009;BME280;44794;42.652;23.318;2023-03-18T04:38:31;94785.88;;;-1.76;100.00
59009;BME280;44794;42.652;23.318;2023-03-18T04:40:57;94790.16;;;-1.78;100.00
59009;BME280;44794;42.652;23.318;2023-03-18T04:43:22;94796.91;;;-1.77;100.00
59009;BME280;44794;42.652;23.318;2023-03-18T04:45:48;94796.16;;;-1.80;100.00
59009;BME280;44794;42.652;23.318;2023-03-18T04:48:14;94795.28;;;-1.79;100.00
59009;BME280;44794;42.652;23.318;2023-03-18T04:50:39;94800.19;;;-1.72;100.00
59009;BME280;44794;42.652;23.318;2023-03-18T04:53:04;94798.50;;;-1.71;100.00
59009;BME280;44794;42.652;23.318;2023-03-18T04:55:30;94799.31;;;-1.71;100.00
59009;BME280;44794;42.652;23.318;2023-03-18T04:57:56;94794.91;;;-1.64;100.00
59009;BME280;44794;42.652;23.318;2023-03-18T05:00:21;94805.22;;;-1.69;100.00
59009;BME280;44794;42.652;23.318;2023-03-18T05:02:48;94801.63;;;-1.62;100.00
59009;BME280;44794;42.652;23.318;2023-03-18T05:05:13;94796.41;;;-1.56;100.00
59009;BME280;44794;42.652;23.318;2023-03-18T05:07:40;94804.75;;;-1.51;100.00
59009;BME280;44794;42.652;23.318;2023-03-18T05:10:07;94797.81;;;-1.46;100.00
59009;BME280;44794;42.652;23.318;2023-03-18T05:12:34;94796.88;;;-1.42;100.00
59009;BME280;44794;42.652;23.318;2023-03-18T05:15:00;94806.78;;;-1.32;100.00
59009;BME280;44794;42.652;23.318;2023-03-18T05:17:26;94798.06;;;-1.23;100.00
59009;BME280;44794;42.652;23.318;2023-03-18T05:19:52;94793.63;;;-1.15;100.00
59009;BME280;44794;42.652;23.318;2023-03-18T05:22:18;94796.63;;;-1.01;100.00
59009;BME280;44794;42.652;23.318;2023-03-18T05:24:44;94786.19;;;-0.92;100.00
59009;BME280;44794;42.652;23.318;2023-03-18T05:27:14;94783.28;;;-0.80;100.00
59009;BME280;44794;42.652;23.318;2023-03-18T05:29:41;94786.47;;;-0.73;100.00
59009;BME280;44794;42.652;23.318;2023-03-18T05:32:08;94792.88;;;-0.60;100.00
59009;BME280;44794;42.652;23.318;2023-03-18T05:34:35;94790.72;;;-0.44;100.00
59009;BME280;44794;42.652;23.318;2023-03-18T05:37:04;94789.53;;;-0.33;100.00
59009;BME280;44794;42.652;23.318;2023-03-18T05:39:31;94789.00;;;-0.15;100.00
59009;BME280;44794;42.652;23.318;2023-03-18T05:41:58;94776.56;;;0.78;100.00
59009;BME280;44794;42.652;23.318;2023-03-18T05:44:24;94761.84;;;2.61;100.00
59009;BME280;44794;42.652;23.318;2023-03-18T05:46:49;94784.22;;;4.46;100.00
59009;BME280;44794;42.652;23.318;2023-03-18T05:49:17;94809.47;;;6.21;100.00
59009;BME280;44794;42.652;23.318;2023-03-18T05:51:43;94851.72;;;7.97;100.00
59009;BME280;44794;42.652;23.318;2023-03-18T05:54:09;94904.69;;;8.61;83.48
59009;BME280;44794;42.652;23.318;2023-03-18T05:56:34;94902.13;;;10.05;74.85
59009;BME280;44794;42.652;23.318;2023-03-18T05:59:00;94926.47;;;10.42;63.60
59009;BME280;44794;42.652;23.318;2023-03-18T06:01:25;94939.75;;;10.37;54.36
59009;BME280;44794;42.652;23.318;2023-03-18T06:03:53;94941.22;;;9.37;52.04
59009;BME280;44794;42.652;23.318;2023-03-18T06:06:19;94942.50;;;8.64;54.96
59009;BME280;44794;42.652;23.318;2023-03-18T06:08:44;94950.06;;;8.95;53.33
59009;BME280;44794;42.652;23.318;2023-03-18T06:11:11;94943.47;;;9.03;52.65
59009;BME280;44794;42.652;23.318;2023-03-18T06:13:36;94951.44;;;9.79;49.40
59009;BME280;44794;42.652;23.318;2023-03-18T06:16:03;94953.00;;;11.90;46.19
59009;BME280;44794;42.652;23.318;2023-03-18T06:18:29;94958.69;;;13.93;41.90
59009;BME280;44794;42.652;23.318;2023-03-18T06:20:54;94973.09;;;14.19;39.69
59009;BME280;44794;42.652;23.318;2023-03-18T06:23:21;94968.06;;;13.84;39.17
59009;BME280;44794;42.652;23.318;2023-03-18T06:25:47;94968.56;;;13.89;40.04
59009;BME280;44794;42.652;23.318;2023-03-18T06:28:13;94958.50;;;14.16;38.79
59009;BME280;44794;42.652;23.318;2023-03-18T06:30:39;94963.41;;;14.50;38.25
59009;BME280;44794;42.652;23.318;2023-03-18T06:33:05;94956.03;;;14.04;38.44
59009;BME280;44794;42.652;23.318;2023-03-18T06:35:31;94946.31;;;12.54;41.00
59009;BME280;44794;42.652;23.318;2023-03-18T06:37:57;94938.00;;;10.98;44.05
59009;BME280;44794;42.652;23.318;2023-03-18T06:40:22;94925.81;;;9.74;47.02
59009;BME280;44794;42.652;23.318;2023-03-18T06:42:49;94927.75;;;8.78;50.32
59009;BME280;44794;42.652;23.318;2023-03-18T06:45:15;94904.16;;;7.99;53.12
59009;BME280;44794;42.652;23.318;2023-03-18T06:47:41;94894.56;;;7.44;55.92
59009;BME280;44794;42.652;23.318;2023-03-18T06:50:08;94893.41;;;6.89;58.46
59009;BME280;44794;42.652;23.318;2023-03-18T06:52:33;94903.50;;;6.31;61.65
59009;BME280;44794;42.652;23.318;2023-03-18T06:54:59;94899.38;;;6.11;63.37
59009;BME280;44794;42.652;23.318;2023-03-18T06:57:25;94905.88;;;5.86;63.35
59009;BME280;44794;42.652;23.318;2023-03-18T06:59:51;94909.81;;;5.25;65.98
59009;BME280;44794;42.652;23.318;2023-03-18T07:02:18;94907.06;;;4.76;71.14
59009;BME280;44794;42.652;23.318;2023-03-18T07:04:43;94897.69;;;4.57;73.21
59009;BME280;44794;42.652;23.318;2023-03-18T07:07:09;94905.00;;;4.29;73.79
59009;BME280;44794;42.652;23.318;2023-03-18T07:09:35;94897.47;;;4.06;74.72
59009;BME280;44794;42.652;23.318;2023-03-18T07:12:01;94895.22;;;3.80;76.00
59009;BME280;44794;42.652;23.318;2023-03-18T07:14:26;94897.00;;;3.78;78.00
59009;BME280;44794;42.652;23.318;2023-03-18T07:16:53;94887.91;;;3.71;79.05
59009;BME280;44794;42.652;23.318;2023-03-18T07:19:19;94888.19;;;3.66;79.36
59009;BME280;44794;42.652;23.318;2023-03-18T07:21:45;94895.38;;;3.58;79.73
59009;BME280;44794;42.652;23.318;2023-03-18T07:24:10;94892.44;;;3.47;80.57
59009;BME280;44794;42.652;23.318;2023-03-18T07:26:36;94891.31;;;3.52;80.63
59009;BME280;44794;42.652;23.318;2023-03-18T07:29:03;94894.59;;;3.56;81.29
59009;BME280;44794;42.652;23.318;2023-03-18T07:31:29;94891.00;;;3.60;82.28
59009;BME280;44794;42.652;23.318;2023-03-18T07:33:55;94901.47;;;3.55;82.02
59009;BME280;44794;42.652;23.318;2023-03-18T07:36:22;94896.31;;;3.75;82.07
59009;BME280;44794;42.652;23.318;2023-03-18T07:38:47;94893.56;;;3.79;82.02
59009;BME280;44794;42.652;23.318;2023-03-18T07:41:13;94897.19;;;3.94;81.56
59009;BME280;44794;42.652;23.318;2023-03-18T07:43:38;94904.34;;;3.87;80.48
59009;BME280;44794;42.652;23.318;2023-03-18T07:46:04;94903.44;;;3.88;80.05
59009;BME280;44794;42.652;23.318;2023-03-18T07:48:30;94898.69;;;3.79;81.20
59009;BME280;44794;42.652;23.318;2023-03-18T07:50:55;94905.22;;;3.86;81.47
59009;BME280;44794;42.652;23.318;2023-03-18T07:53:21;94901.53;;;3.73;80.92
59009;BME280;44794;42.652;23.318;2023-03-18T07:55:47;94904.13;;;3.92;81.04
59009;BME280;44794;42.652;23.318;2023-03-18T07:58:12;94895.50;;;3.74;81.38
59009;BME280;44794;42.652;23.318;2023-03-18T08:00:38;94899.97;;;3.89;81.70
59009;BME280;44794;42.652;23.318;2023-03-18T08:03:03;94906.94;;;4.06;81.84
59009;BME280;44794;42.652;23.318;2023-03-18T08:05:30;94904.72;;;4.17;81.69
59009;BME280;44794;42.652;23.318;2023-03-18T08:07:56;94906.72;;;4.29;80.26
59009;BME280;44794;42.652;23.318;2023-03-18T08:10:21;94897.78;;;4.37;79.65
59009;BME280;44794;42.652;23.318;2023-03-18T08:12:48;94896.81;;;4.58;80.95
59009;BME280;44794;42.652;23.318;2023-03-18T08:15:13;94900.06;;;4.80;79.62
59009;BME280;44794;42.652;23.318;2023-03-18T08:17:38;94895.69;;;4.99;79.64
59009;BME280;44794;42.652;23.318;2023-03-18T08:20:05;94894.88;;;5.15;76.14
59009;BME280;44794;42.652;23.318;2023-03-18T08:22:30;94900.56;;;5.21;74.36
59009;BME280;44794;42.652;23.318;2023-03-18T08:24:56;94911.31;;;5.13;73.90
59009;BME280;44794;42.652;23.318;2023-03-18T08:27:22;94914.22;;;5.05;74.18
59009;BME280;44794;42.652;23.318;2023-03-18T08:29:48;94914.53;;;4.99;74.18
59009;BME280;44794;42.652;23.318;2023-03-18T08:32:13;94919.78;;;4.79;74.82
59009;BME280;44794;42.652;23.318;2023-03-18T08:34:39;94913.03;;;4.77;75.52
59009;BME280;44794;42.652;23.318;2023-03-18T08:37:05;94901.56;;;4.65;76.63
59009;BME280;44794;42.652;23.318;2023-03-18T08:39:34;94901.16;;;4.74;77.09
59009;BME280;44794;42.652;23.318;2023-03-18T08:42:02;94906.50;;;4.88;76.01
59009;BME280;44794;42.652;23.318;2023-03-18T08:44:28;94905.38;;;4.94;76.31
59009;BME280;44794;42.652;23.318;2023-03-18T08:46:55;94909.72;;;5.10;74.17
59009;BME280;44794;42.652;23.318;2023-03-18T08:49:22;94911.16;;;5.32;71.28
59009;BME280;44794;42.652;23.318;2023-03-18T08:51:47;94914.03;;;5.26;69.56
59009;BME280;44794;42.652;23.318;2023-03-18T08:54:13;94912.44;;;5.41;69.08
59009;BME280;44794;42.652;23.318;2023-03-18T08:56:38;94918.28;;;5.44;69.45
59009;BME280;44794;42.652;23.318;2023-03-18T08:59:04;94906.25;;;5.62;69.86
59009;BME280;44794;42.652;23.318;2023-03-18T09:01:30;94911.78;;;5.71;69.45
59009;BME280;44794;42.652;23.318;2023-03-18T09:03:55;94920.97;;;5.77;68.30
59009;BME280;44794;42.652;23.318;2023-03-18T09:06:23;94915.81;;;5.94;68.16
59009;BME280;44794;42.652;23.318;2023-03-18T09:08:48;94917.44;;;6.11;67.82
59009;BME280;44794;42.652;23.318;2023-03-18T09:11:14;94919.63;;;6.19;65.48
59009;BME280;44794;42.652;23.318;2023-03-18T09:13:40;94918.00;;;6.49;66.79
59009;BME280;44794;42.652;23.318;2023-03-18T09:16:06;94917.38;;;6.61;63.37
59009;BME280;44794;42.652;23.318;2023-03-18T09:18:32;94926.94;;;6.74;61.55
59009;BME280;44794;42.652;23.318;2023-03-18T09:20:59;94925.94;;;6.76;60.38
59009;BME280;44794;42.652;23.318;2023-03-18T09:23:25;94934.84;;;6.86;57.74
59009;BME280;44794;42.652;23.318;2023-03-18T09:25:51;94928.69;;;6.89;56.99
59009;BME280;44794;42.652;23.318;2023-03-18T09:28:19;94935.09;;;6.97;56.54
59009;BME280;44794;42.652;23.318;2023-03-18T09:30:45;94944.16;;;7.04;53.98
59009;BME280;44794;42.652;23.318;2023-03-18T09:33:11;94942.25;;;6.92;49.06
59009;BME280;44794;42.652;23.318;2023-03-18T09:35:38;94942.69;;;7.00;49.56
59009;BME280;44794;42.652;23.318;2023-03-18T09:38:04;94934.19;;;7.14;50.35
59009;BME280;44794;42.652;23.318;2023-03-18T09:40:33;94929.16;;;7.26;51.71
59009;BME280;44794;42.652;23.318;2023-03-18T09:51:24;94926.00;;;6.90;52.77
59009;BME280;44794;42.652;23.318;2023-03-18T09:53:58;94912.78;;;6.96;53.16
59009;BME280;44794;42.652;23.318;2023-03-18T09:56:29;94909.38;;;6.96;54.54
59009;BME280;44794;42.652;23.318;2023-03-18T09:59:09;94915.66;;;7.21;54.60
59009;BME280;44794;42.652;23.318;2023-03-18T10:01:41;94922.97;;;7.44;56.05
59009;BME280;44794;42.652;23.318;2023-03-18T10:04:15;94918.75;;;7.57;54.64
59009;BME280;44794;42.652;23.318;2023-03-18T10:06:43;94916.19;;;7.57;54.42
59009;BME280;44794;42.652;23.318;2023-03-18T10:09:24;94927.13;;;7.46;53.11
59009;BME280;44794;42.652;23.318;2023-03-18T10:11:58;94934.66;;;7.65;51.79
59009;BME280;44794;42.652;23.318;2023-03-18T10:19:29;94939.03;;;7.49;51.89
59009;BME280;44794;42.652;23.318;2023-03-18T10:24:50;94928.28;;;7.70;48.81
59009;BME280;44794;42.652;23.318;2023-03-18T10:33:06;94936.53;;;7.77;46.28
59009;BME280;44794;42.652;23.318;2023-03-18T10:35:44;94925.31;;;7.92;46.90
59009;BME280;44794;42.652;23.318;2023-03-18T10:40:41;94942.00;;;8.16;43.35
59009;BME280;44794;42.652;23.318;2023-03-18T10:43:18;94934.63;;;8.23;45.27
59009;BME280;44794;42.652;23.318;2023-03-18T10:45:47;94933.06;;;8.21;41.55
59009;BME280;44794;42.652;23.318;2023-03-18T10:48:19;94930.69;;;8.32;42.14
59009;BME280;44794;42.652;23.318;2023-03-18T10:51:00;94928.75;;;8.35;43.00
59009;BME280;44794;42.652;23.318;2023-03-18T10:53:35;94926.50;;;8.57;43.05
59009;BME280;44794;42.652;23.318;2023-03-18T10:56:08;94928.34;;;8.69;41.13
59009;BME280;44794;42.652;23.318;2023-03-18T10:58:35;94929.00;;;8.73;42.84
59009;BME280;44794;42.652;23.318;2023-03-18T11:01:02;94934.44;;;8.82;42.54
59009;BME280;44794;42.652;23.318;2023-03-18T11:06:01;94925.50;;;9.40;42.03
59009;BME280;44794;42.652;23.318;2023-03-18T11:08:32;94916.78;;;9.41;41.48
59009;BME280;44794;42.652;23.318;2023-03-18T11:11:12;94930.84;;;9.25;40.50
59009;BME280;44794;42.652;23.318;2023-03-18T11:13:44;94924.22;;;9.33;41.24
59009;BME280;44794;42.652;23.318;2023-03-18T11:16:20;94919.59;;;9.12;40.45
59009;BME280;44794;42.652;23.318;2023-03-18T11:18:48;94917.88;;;8.85;41.39
59009;BME280;44794;42.652;23.318;2023-03-18T11:21:15;94928.72;;;8.63;43.10
59009;BME280;44794;42.652;23.318;2023-03-18T11:23:57;94924.97;;;7.98;44.82
59009;BME280;44794;42.652;23.318;2023-03-18T11:26:55;94904.06;;;7.57;45.16
59009;BME280;44794;42.652;23.318;2023-03-18T11:29:25;94909.44;;;7.54;45.96
59009;BME280;44794;42.652;23.318;2023-03-18T11:31:55;94900.28;;;7.49;46.99
59009;BME280;44794;42.652;23.318;2023-03-18T11:34:25;94898.38;;;7.66;46.51
59009;BME280;44794;42.652;23.318;2023-03-18T11:37:11;94901.41;;;8.02;45.40
59009;BME280;44794;42.652;23.318;2023-03-18T11:39:39;94904.50;;;8.22;44.09
59009;BME280;44794;42.652;23.318;2023-03-18T11:42:20;94898.34;;;8.10;43.57
59009;BME280;44794;42.652;23.318;2023-03-18T11:44:47;94895.72;;;8.11;43.80
59009;BME280;44794;42.652;23.318;2023-03-18T11:47:23;94895.66;;;8.26;43.17
59009;BME280;44794;42.652;23.318;2023-03-18T11:49:51;94890.63;;;8.23;43.64
59009;BME280;44794;42.652;23.318;2023-03-18T11:52:44;94894.91;;;8.24;44.03
59009;BME280;44794;42.652;23.318;2023-03-18T11:55:23;94896.50;;;7.98;43.98
59009;BME280;44794;42.652;23.318;2023-03-18T12:00:28;94902.38;;;7.72;44.45
59009;BME280;44794;42.652;23.318;2023-03-18T12:08:45;94907.38;;;8.60;42.70
59009;BME280;44794;42.652;23.318;2023-03-18T12:41:30;94899.25;;;7.95;43.51
59009;BME280;44794;42.652;23.318;2023-03-18T12:44:16;94891.59;;;7.93;44.19
59009;BME280;44794;42.652;23.318;2023-03-18T12:47:08;94885.25;;;7.99;43.48
59009;BME280;44794;42.652;23.318;2023-03-18T12:49:55;94882.84;;;8.10;43.80
59009;BME280;44794;42.652;23.318;2023-03-18T12:57:47;94888.56;;;8.84;42.36
59009;BME280;44794;42.652;23.318;2023-03-18T13:00:22;94896.22;;;8.86;42.92
59009;BME280;44794;42.652;23.318;2023-03-18T13:02:55;94890.72;;;8.50;42.60
59009;BME280;44794;42.652;23.318;2023-03-18T13:11:13;94884.81;;;8.48;43.10
59009;BME280;44794;42.652;23.318;2023-03-18T13:13:48;94895.38;;;8.45;42.69
59009;BME280;44794;42.652;23.318;2023-03-18T13:16:22;94888.78;;;8.53;42.57
59009;BME280;44794;42.652;23.318;2023-03-18T13:18:51;94891.63;;;8.77;42.17
59009;BME280;44794;42.652;23.318;2023-03-18T13:21:22;94893.53;;;8.87;41.31
59009;BME280;44794;42.652;23.318;2023-03-18T13:24:20;94891.44;;;8.80;40.41
59009;BME280;44794;42.652;23.318;2023-03-18T13:27:19;94888.75;;;8.81;41.23
59009;BME280;44794;42.652;23.318;2023-03-18T13:29:59;94893.53;;;8.87;41.65
59009;BME280;44794;42.652;23.318;2023-03-18T13:44:13;94890.84;;;8.48;40.97
59009;BME280;44794;42.652;23.318;2023-03-18T13:46:51;94886.66;;;8.60;41.01
59009;BME280;44794;42.652;23.318;2023-03-18T13:49:27;94892.09;;;8.83;39.55
59009;BME280;44794;42.652;23.318;2023-03-18T13:51:58;94883.03;;;9.02;39.72
59009;BME280;44794;42.652;23.318;2023-03-18T13:54:32;94883.34;;;8.98;39.57
59009;BME280;44794;42.652;23.318;2023-03-18T13:57:17;94883.19;;;8.87;39.21
59009;BME280;44794;42.652;23.318;2023-03-18T13:59:45;94886.47;;;9.03;39.13
59009;BME280;44794;42.652;23.318;2023-03-18T14:02:26;94891.75;;;8.61;38.71
59009;BME280;44794;42.652;23.318;2023-03-18T14:04:55;94882.59;;;8.56;39.07
59009;BME280;44794;42.652;23.318;2023-03-18T14:07:25;94867.78;;;8.72;39.58
59009;BME280;44794;42.652;23.318;2023-03-18T14:22:50;94874.28;;;9.44;38.08
59009;BME280;44794;42.652;23.318;2023-03-18T14:25:20;94870.78;;;9.45;37.07
59009;BME280;44794;42.652;23.318;2023-03-18T14:27:52;94876.44;;;9.37;36.99
59009;BME280;44794;42.652;23.318;2023-03-18T14:35:49;94887.72;;;8.84;37.26
59009;BME280;44794;42.652;23.318;2023-03-18T14:38:23;94885.63;;;8.76;37.08
59009;BME280;44794;42.652;23.318;2023-03-18T14:40:55;94884.13;;;8.72;37.86
59009;BME280;44794;42.652;23.318;2023-03-18T14:43:28;94878.06;;;8.59;37.56
59009;BME280;44794;42.652;23.318;2023-03-18T14:46:02;94882.88;;;8.37;38.20
59009;BME280;44794;42.652;23.318;2023-03-18T14:48:33;94886.22;;;8.25;38.84